MPDA/DAV METAR and TAF weather

Enter ICAO airport designator
Station Type Date Time Source
MPDA METAR 2021/03/08 12:00 UTC NOAA

MPDA 081200Z 32004KT 9999 FEW020 23/17 Q1010


Station Type Date Time Source
MPDA Decoded METAR 2021/03/08 12:00 UTC NOAA

David, Panama (MPDA) 08-24N 082-25W 26M
Mar 08, 2021 - 07:00 AM EST / 2021.03.08 1200 UTC
Wind: from the NW (320 degrees) at 5 MPH (4 KT):0
Visibility: greater than 7 mile(s):0
Sky conditions: mostly clear
Temperature: 73 F (23 C)
Dew Point: 62 F (17 C)
Relative Humidity: 68%
Pressure (altimeter): 29.83 in. Hg (1010 hPa)
ob: MPDA 081200Z 32004KT 9999 FEW020 23/17 Q1010
cycle: 12

Station Type Date Time Source
MPDA TAF 2021/03/08 12:54 UTC NOAA

TAF TAF MPDA 081050Z 0812/0824 04008KT 9999 FEW020
BECMG 0814/0818 03014KT
BECMG 0819/0823 19010KT

Example: see airport list